Etusivu
METAR-TAF:

METAR-TAF

Lentoasemat :

Linaten lentoasema

Milano, Italia

Leveyspiiri: 45-26N, Pituuspiiri: 009-17E, korkeus merenpinnasta: 107 m

Tämänhetkinen sää

Tämä raportti tehtiin 17 minuuttia sitten, kello 06.20 UTC
Tuuli 2 kn eri suunnista
Lämpötila 13°C
Kosteus 94%
Ilmanpaine 1020 hPa
Näkyvyys: 2000 m
Hajanaisia pilviä 3500 ft:n korkeudessa
utua

METAR: LIML 210620Z VRB02KT 2000 BR SCT035 13/12 Q1020 NOSIG

Aika: 08:37 (06:37 UTC)

Sääennuste

Tämä raportti tehtiin 1 tunti ja 37 minuuttia sitten, kello 05.00 UTC
Ennuste voimassa 21. päivästä klo 06 UTC - 22. päivään klo 06 UTC
Tuuli 5 kn eri suunnista
Näkyvyys: 7000 m
Todennäköisyys 40% :
Ajoittain
21. päivästä klo 06 UTC - 21. päivään klo 08 UTC
Näkyvyys: 0800 m
sumuhattaroita
Ajoittain
21. päivästä klo 15 UTC - 21. päivään klo 18 UTC
Tuuli 12 kn idästä/kaakosta

TAF: LIML 210500Z 2106/2206 VRB05KT 7000 NSC PROB40 TEMPO 2106/2108 0800 BCFG TEMPO 2115/2118 11012KT

Säähavainnot ja -ennusteet yli 4000 lentoasemalta (METAR- ja TAF-raportit).

Käytössä olevat sääasemat on merkitty karttaan keltaisilla ja punaisilla pisteillä.

Aseta hiiri pisteen päälle nähdäksesi sääaseman nimen.

Klikkaa sitten nähdäksesi säähavainnot ja -ennusteet.

Kartan vaihtaminen: klikkaa mustalla rastilla varustettuja vihreitä pisteitä, niin voit zoomata sisään; viivalla varustettua vihreää pistettä, niin voit zoomata ulos tai vihreitä nuolia, niin pääset viereisille kartoille.


METAR-TAF: